Briefing drone pour Sainte-sigolene

Rechercher une autre localisation

Conditions de vol :


Nous sommes le : Mardi 29 septembre 2020
Il est 22:34 UTC (00:34 LT)

Lever de soleil : 05:12 UTC (07:12 LT)
Coucher de soleil : 17:53 UTC (19:53 LT)

Météo

L'essentiel des conditions de vol

VIGILANCE MÉTÉO FRANCE - Haute-Loire (43)
Pas de vigilances particulieres
CARTE TEMSI
CARTES DES FRONTS
METAR de LFMH
LFMH 282230Z AUTO 17004KT 9999 BKN050 OVC060 10/08 Q1020

Date d'émission: 28/09/2020
Heure d'émission: 22:30 UTC
Vent: 170° pour 4 KT (7 km/h)
Visibilité horizontale: > 10 km
Plafond :
- Nuages morcelés à 5000ft (1524m)
- Couvert à 6000ft (1829m)
Température: 10 °C
Point de rosée: 8 °C
Humidité: 87%
Pression (QNH): 1020 hPa
TAF de LFMH
LFMH 281959Z 2819/2915 CNL

Conditions prévues :

Heure d'émission : Bulletin éffectué le 28 à 19:00 UTC
Prévision : Valide du 28 a 19:00 UTC au 29 a 15:00 UTC
Nuages : à 0ft (0 m)
WEBCAM POUR SAINTE-SIGOLENE

Réglementation

Voler en sécurité

CARTES AERONAUTIQUE 1/500.000
CARTES VAC (LFMH)
SUP AIP




Chargement des AIP...
NOTAM (SAINTE-SIGOLENE + Terrain à proximité / FIR )




Chargement des NOTAMS...
CONTACT PREFECTURE 43


Avertissement : Les données mises à disposition sont indicatives. Oxygène Drone ne pourra être tenu responsable de dégâts causés aux biens et aux personnes.